Time;durP1;ratioP1;P1;durP2;ratioP2;P2;SDS_P1;SDS_P2;PMS_P1;PMS_P2;Temp;Humidity;BMP_temperature;BMP_pressure;BME280_temperature;BME280_humidity;BME280_pressure;Samples;Min_cycle;Max_cycle;Signal;HPM_P1;HPM_P2
2023/09/18 00:02:05;;;;;;;5.20;4.70;;;;;;;20.22;75.23;100378.47;5094982;28;20254;-75
2023/09/18 00:04:34;;;;;;;5.87;5.30;;;;;;;20.33;74.78;100373.31;5094964;28;20224;-75
2023/09/18 00:07:03;;;;;;;6.00;5.13;;;;;;;20.23;74.54;100380.13;5094998;28;20292;-75
2023/09/18 00:09:31;;;;;;;5.87;5.27;;;;;;;20.15;74.64;100376.91;5094918;28;20204;-75
2023/09/18 00:12:01;;;;;;;6.07;5.47;;;;;;;20.09;75.54;100364.22;5094582;28;20765;-75
2023/09/18 00:14:29;;;;;;;5.63;5.13;;;;;;;19.96;76.40;100351.69;5094768;28;20228;-75
2023/09/18 00:16:58;;;;;;;6.30;5.23;;;;;;;19.99;75.84;100355.81;5094829;28;20254;-75
2023/09/18 00:19:27;;;;;;;5.60;5.00;;;;;;;20.09;75.35;100354.19;5094954;28;20205;-75
2023/09/18 00:21:56;;;;;;;6.70;5.17;;;;;;;20.22;74.62;100350.44;5094554;28;20235;-75
2023/09/18 00:24:25;;;;;;;7.07;6.00;;;;;;;19.89;76.00;100339.25;5094572;28;20228;-75
2023/09/18 00:26:53;;;;;;;6.27;5.67;;;;;;;19.92;75.80;100328.75;5094177;28;20232;-75
2023/09/18 00:29:23;;;;;;;5.53;5.03;;;;;;;19.78;76.87;100327.25;5094356;28;20772;-75
2023/09/18 00:31:52;;;;;;;5.57;4.93;;;;;;;19.84;76.07;100320.06;5094454;28;20208;-75
2023/09/18 00:34:20;;;;;;;6.00;5.50;;;;;;;19.76;76.80;100314.97;5094024;28;20232;-75
2023/09/18 00:36:49;;;;;;;6.87;5.40;;;;;;;19.88;76.56;100315.84;5094037;28;20670;-75
2023/09/18 00:39:17;;;;;;;5.60;4.93;;;;;;;19.83;75.49;100310.28;5094362;28;20211;-75
2023/09/18 00:41:49;;;;;;;6.17;5.67;;;;;;;19.67;76.99;100314.47;5094199;28;20229;-75
2023/09/18 00:44:17;;;;;;;8.20;5.77;;;;;;;19.78;76.54;100301.97;5094266;28;20232;-75
2023/09/18 00:46:47;;;;;;;6.83;5.47;;;;;;;19.74;76.12;100298.91;5094218;28;20201;-75
2023/09/18 00:49:17;;;;;;;7.93;5.90;;;;;;;19.68;76.95;100294.41;5094417;28;20733;-75
2023/09/18 00:51:47;;;;;;;7.53;5.37;;;;;;;19.74;76.41;100299.72;5094103;28;20197;-75
2023/09/18 00:54:18;;;;;;;5.67;5.13;;;;;;;19.62;76.88;100279.81;5093969;28;20229;-75
2023/09/18 00:56:47;;;;;;;6.10;5.50;;;;;;;19.64;76.99;100277.72;5094049;28;20280;-75
2023/09/18 00:59:16;;;;;;;8.37;5.53;;;;;;;19.64;77.08;100276.91;5094307;28;20232;-75
2023/09/18 01:01:45;;;;;;;6.17;5.57;;;;;;;19.74;76.59;100282.59;5093918;28;20220;-75
2023/09/18 01:04:17;;;;;;;6.07;5.43;;;;;;;19.67;76.88;100281.88;5094130;28;20252;-75
2023/09/18 01:06:45;;;;;;;6.77;5.33;;;;;;;19.58;77.13;100278.66;5093843;28;20593;-75
2023/09/18 01:09:15;;;;;;;5.93;5.27;;;;;;;19.49;77.07;100273.75;5093746;28;20670;-75
2023/09/18 01:11:50;;;;;;;7.43;5.80;;;;;;;19.48;76.73;100266.69;5093832;28;20292;-75
2023/09/18 01:14:26;;;;;;;6.67;6.10;;;;;;;19.44;77.53;100260.88;5093744;28;20312;-75
2023/09/18 01:16:58;;;;;;;6.97;5.57;;;;;;;19.48;77.57;100255.81;5093762;28;20193;-75
2023/09/18 01:19:41;;;;;;;7.00;6.27;;;;;;;19.52;78.00;100254.31;5093492;28;20234;-75
2023/09/18 01:22:11;;;;;;;6.30;5.70;;;;;;;19.55;77.08;100256.56;5093595;28;20317;-75
2023/09/18 01:24:41;;;;;;;7.20;6.23;;;;;;;19.43;77.82;100242.94;5093539;28;20252;-75
2023/09/18 01:27:14;;;;;;;8.03;6.30;;;;;;;19.51;77.06;100236.34;5093630;28;20275;-75
2023/09/18 01:29:42;;;;;;;7.20;6.33;;;;;;;19.47;77.47;100244.13;5093664;28;20228;-75
2023/09/18 01:32:11;;;;;;;10.13;6.33;;;;;;;19.39;77.78;100230.84;5093273;28;20205;-75
2023/09/18 01:34:45;;;;;;;9.17;6.93;;;;;;;19.20;78.66;100226.50;5093104;28;20603;-75
2023/09/18 01:37:17;;;;;;;7.83;6.53;;;;;;;19.27;78.38;100227.25;5093588;28;20198;-75
2023/09/18 01:39:49;;;;;;;7.63;6.37;;;;;;;19.26;78.22;100217.44;5092512;28;20196;-75
2023/09/18 01:42:18;;;;;;;9.30;6.40;;;;;;;19.13;77.95;100204.91;5093418;28;20209;-75
2023/09/18 01:44:47;;;;;;;8.80;6.53;;;;;;;19.19;78.39;100216.72;5093496;28;20288;-75
2023/09/18 01:47:23;;;;;;;7.70;6.80;;;;;;;19.19;78.42;100212.13;5093498;28;20303;-75
2023/09/18 01:49:51;;;;;;;7.10;6.40;;;;;;;19.12;78.49;100207.81;5093125;28;20216;-75
2023/09/18 01:52:20;;;;;;;7.40;6.70;;;;;;;19.14;78.59;100211.16;5093304;28;20200;-75
2023/09/18 01:54:50;;;;;;;10.03;6.50;;;;;;;19.04;79.03;100210.88;5093284;28;20294;-75
2023/09/18 01:57:19;;;;;;;9.67;6.77;;;;;;;18.98;79.43;100203.63;5093000;28;20666;-75
2023/09/18 01:59:47;;;;;;;7.93;6.67;;;;;;;18.98;79.86;100206.34;5093297;28;20291;-75
2023/09/18 02:02:16;;;;;;;8.33;6.43;;;;;;;19.03;79.42;100203.78;5093359;28;20229;-75
2023/09/18 02:04:56;;;;;;;9.43;7.17;;;;;;;18.94;79.63;100199.72;5093285;28;20599;-75
2023/09/18 02:07:37;;;;;;;8.33;6.80;;;;;;;18.85;79.72;100188.34;5093256;28;20203;-75
2023/09/18 02:10:08;;;;;;;9.20;7.43;;;;;;;18.87;79.13;100178.09;5093198;28;20612;-75
2023/09/18 02:12:36;;;;;;;8.23;6.73;;;;;;;18.89;80.02;100180.59;5093157;28;20188;-75
2023/09/18 02:15:06;;;;;;;8.27;6.80;;;;;;;18.84;80.49;100173.13;5093190;28;20208;-75
2023/09/18 02:17:35;;;;;;;7.53;6.60;;;;;;;18.74;79.57;100170.94;5093100;28;20204;-75
2023/09/18 02:20:11;;;;;;;8.20;6.57;;;;;;;18.76;80.21;100172.63;5093077;28;20232;-75
2023/09/18 02:22:40;;;;;;;8.93;7.10;;;;;;;18.76;80.38;100170.72;5092677;28;20605;-75
2023/09/18 02:25:10;;;;;;;11.27;6.83;;;;;;;18.71;80.20;100171.41;5093073;28;20212;-75
2023/09/18 02:27:39;;;;;;;7.27;6.20;;;;;;;18.68;80.58;100169.16;5092944;28;20640;-75
2023/09/18 02:30:09;;;;;;;10.60;6.47;;;;;;;18.75;80.46;100169.06;5093200;28;20295;-75
2023/09/18 02:32:38;;;;;;;7.23;6.53;;;;;;;18.69;80.30;100172.69;5092741;28;20258;-75
2023/09/18 02:35:08;;;;;;;8.37;6.33;;;;;;;18.56;80.71;100160.09;5093013;28;20196;-75
2023/09/18 02:37:37;;;;;;;7.63;6.83;;;;;;;18.51;81.63;100154.53;5092935;28;20289;-75
2023/09/18 02:40:07;;;;;;;7.47;6.67;;;;;;;18.52;81.16;100145.38;5092635;28;20258;-75
2023/09/18 02:42:37;;;;;;;8.97;6.83;;;;;;;18.53;81.18;100152.44;5092778;28;20215;-75
2023/09/18 02:45:08;;;;;;;8.40;6.97;;;;;;;18.44;81.80;100140.19;5092831;28;20291;-75
2023/09/18 02:47:37;;;;;;;9.87;7.03;;;;;;;18.43;81.78;100140.41;5092548;28;20564;-75
2023/09/18 02:50:07;;;;;;;10.90;7.43;;;;;;;18.47;81.72;100134.31;5092931;28;20251;-75
2023/09/18 02:52:35;;;;;;;8.07;6.90;;;;;;;18.53;81.44;100138.88;5096045;28;20573;-75
2023/09/18 02:55:04;;;;;;;7.33;6.40;;;;;;;18.57;81.19;100136.53;5096385;28;20243;-75
2023/09/18 02:57:33;;;;;;;11.50;7.30;;;;;;;18.54;80.91;100132.41;5096380;28;20205;-75
2023/09/18 03:00:03;;;;;;;7.63;6.93;;;;;;;18.48;81.08;100133.28;5095946;28;20690;-75
2023/09/18 03:02:32;;;;;;;8.97;7.43;;;;;;;18.45;81.26;100128.31;5096041;28;20232;-75
2023/09/18 03:05:00;;;;;;;10.30;7.40;;;;;;;18.48;81.12;100127.84;5096252;28;20201;-75
2023/09/18 03:07:30;;;;;;;11.20;6.97;;;;;;;18.40;81.86;100128.16;5096163;28;20296;-75
2023/09/18 03:09:58;;;;;;;9.60;7.13;;;;;;;18.37;82.25;100128.59;5096129;28;20236;-75
2023/09/18 03:12:28;;;;;;;10.80;7.30;;;;;;;18.42;82.08;100131.47;5095953;28;20237;-75
2023/09/18 03:14:56;;;;;;;9.87;7.37;;;;;;;18.36;81.53;100121.53;5096012;28;20205;-75
2023/09/18 03:17:26;;;;;;;8.73;6.97;;;;;;;18.31;82.67;100115.97;5095952;28;20312;-75
2023/09/18 03:19:54;;;;;;;8.47;7.67;;;;;;;18.29;83.22;100109.91;5095558;28;20698;-75
2023/09/18 03:22:23;;;;;;;9.53;7.53;;;;;;;18.30;82.83;100105.34;5095698;28;20232;-75
2023/09/18 03:24:51;;;;;;;9.30;7.43;;;;;;;18.28;82.36;100102.88;5095879;28;20306;-75
2023/09/18 03:27:20;;;;;;;9.87;7.27;;;;;;;18.28;82.37;100097.44;5095812;28;20208;-75
2023/09/18 03:29:48;;;;;;;8.67;7.00;;;;;;;18.29;82.26;100092.88;5095701;28;20211;-75
2023/09/18 03:32:17;;;;;;;8.40;7.27;;;;;;;18.23;83.34;100094.56;5095656;28;20207;-75
2023/09/18 03:34:47;;;;;;;10.57;7.70;;;;;;;18.14;83.44;100091.34;5095295;28;20220;-75
2023/09/18 03:37:15;;;;;;;11.77;7.67;;;;;;;18.02;83.90;100095.00;5095731;28;20213;-75
2023/09/18 03:39:44;;;;;;;10.47;7.17;;;;;;;18.12;83.71;100089.91;5095469;28;20215;-75
2023/09/18 03:42:12;;;;;;;8.77;6.90;;;;;;;18.15;82.53;100081.34;5095411;28;20318;-75
2023/09/18 03:44:41;;;;;;;8.83;7.10;;;;;;;18.14;82.88;100074.25;5095360;28;20224;-75
2023/09/18 03:47:09;;;;;;;8.10;7.20;;;;;;;18.21;82.69;100069.59;5095331;28;20215;-75
2023/09/18 03:49:38;;;;;;;8.80;7.07;;;;;;;18.25;82.27;100066.19;5095061;28;20615;-75
2023/09/18 03:52:08;;;;;;;10.93;7.47;;;;;;;18.16;82.55;100058.59;5095329;28;20295;-75
2023/09/18 03:54:36;;;;;;;8.80;7.17;;;;;;;18.22;82.64;100057.69;5095212;28;20247;-75
2023/09/18 03:57:05;;;;;;;8.80;7.23;;;;;;;18.21;82.52;100042.50;5095156;28;20240;-75
2023/09/18 03:59:33;;;;;;;7.07;6.17;;;;;;;18.20;82.82;100030.00;5095103;28;20211;-75
2023/09/18 04:02:02;;;;;;;7.47;6.67;;;;;;;18.23;82.39;100034.97;5094076;28;20213;-75
2023/09/18 04:04:32;;;;;;;7.67;6.83;;;;;;;18.22;81.80;100030.59;5094678;28;20225;-75
2023/09/18 04:07:00;;;;;;;7.53;6.73;;;;;;;18.25;82.03;100024.75;5095072;28;20402;-75
2023/09/18 04:09:30;;;;;;;8.07;6.50;;;;;;;18.28;81.57;100018.03;5094960;28;20261;-75
2023/09/18 04:11:58;;;;;;;7.63;6.60;;;;;;;18.16;81.86;100023.38;5094929;28;20208;-75
2023/09/18 04:14:27;;;;;;;8.43;6.80;;;;;;;18.13;81.99;100018.41;5094748;28;20252;-75
2023/09/18 04:16:55;;;;;;;9.77;6.33;;;;;;;18.17;81.65;100004.19;5094755;28;20205;-75
2023/09/18 04:19:24;;;;;;;8.43;6.70;;;;;;;18.00;82.17;100002.31;5094790;28;20303;-75
2023/09/18 04:21:52;;;;;;;10.20;6.93;;;;;;;18.00;82.25;99992.31;5094727;28;20307;-75
2023/09/18 04:24:21;;;;;;;7.40;6.63;;;;;;;18.05;82.48;99980.78;5094391;28;20237;-75
2023/09/18 04:26:51;;;;;;;7.47;6.70;;;;;;;18.12;82.50;99981.53;5094513;28;20211;-75
2023/09/18 04:29:20;;;;;;;9.03;7.00;;;;;;;18.14;82.61;99982.16;5094752;28;20293;-75
2023/09/18 04:31:49;;;;;;;7.67;6.53;;;;;;;18.03;82.31;99977.50;5094470;28;20228;-75
2023/09/18 04:34:17;;;;;;;7.00;6.30;;;;;;;18.05;82.37;99978.06;5094290;28;20224;-75
2023/09/18 04:36:46;;;;;;;7.23;6.53;;;;;;;17.98;82.02;99971.94;5094404;28;20266;-75
2023/09/18 04:39:14;;;;;;;11.97;7.13;;;;;;;17.90;83.08;99969.53;5094436;28;20233;-75
2023/09/18 04:41:43;;;;;;;9.93;7.00;;;;;;;17.86;83.96;99968.31;5094494;28;20293;-75
2023/09/18 04:44:14;;;;;;;8.10;7.27;;;;;;;17.84;84.14;99965.03;5093811;28;20319;-75
2023/09/18 04:46:43;;;;;;;8.13;7.10;;;;;;;17.86;82.59;99968.31;5094300;28;20246;-75
2023/09/18 04:49:11;;;;;;;7.50;6.63;;;;;;;17.84;83.65;99963.16;5093917;28;20240;-75
2023/09/18 04:51:41;;;;;;;11.47;7.30;;;;;;;17.79;83.47;99954.88;5093849;28;20693;-75
2023/09/18 04:54:09;;;;;;;9.50;7.47;;;;;;;17.77;83.20;99962.41;5094141;28;20227;-75
2023/09/18 04:56:38;;;;;;;9.40;7.40;;;;;;;17.77;83.79;99958.84;5093842;28;20295;-75
2023/09/18 04:59:07;;;;;;;12.93;7.37;;;;;;;17.74;83.76;99949.28;5094041;28;20204;-75
2023/09/18 05:01:36;;;;;;;9.60;7.17;;;;;;;17.73;84.23;99932.25;5094277;28;20304;-75
2023/09/18 05:04:05;;;;;;;8.00;7.07;;;;;;;17.76;83.66;99920.13;5093872;28;20233;-75
2023/09/18 05:06:34;;;;;;;9.73;7.83;;;;;;;17.76;84.08;99913.88;5093921;28;20204;-75
2023/09/18 05:09:03;;;;;;;10.60;7.07;;;;;;;17.78;83.75;99917.16;5093895;28;20216;-75
2023/09/18 05:11:31;;;;;;;12.17;7.40;;;;;;;17.80;83.78;99915.09;5093913;28;20299;-75
2023/09/18 05:14:00;;;;;;;8.27;7.43;;;;;;;17.80;83.89;99917.78;5093582;28;20275;-75
2023/09/18 05:16:29;;;;;;;8.80;6.80;;;;;;;17.82;83.16;99912.97;5094677;28;20288;-75
2023/09/18 05:18:59;;;;;;;8.70;6.83;;;;;;;17.80;83.92;99905.09;5093763;28;20674;-75
2023/09/18 05:21:28;;;;;;;8.23;6.47;;;;;;;17.83;83.50;99906.50;5093845;28;20575;-75
2023/09/18 05:23:56;;;;;;;8.77;6.80;;;;;;;17.84;83.35;99905.47;5093275;28;20785;-75
2023/09/18 05:26:26;;;;;;;6.87;6.20;;;;;;;17.86;84.16;99903.34;5093718;28;20204;-75
2023/09/18 05:28:55;;;;;;;7.27;6.67;;;;;;;17.86;83.59;99893.34;5093959;28;20209;-75
2023/09/18 05:31:24;;;;;;;7.77;6.67;;;;;;;17.87;84.12;99883.34;5093652;28;20208;-75
2023/09/18 05:33:52;;;;;;;8.47;7.17;;;;;;;17.90;83.28;99877.47;5093265;28;20236;-75
2023/09/18 05:36:22;;;;;;;8.03;6.63;;;;;;;17.91;83.64;99879.91;5093475;28;20625;-75
2023/09/18 05:38:51;;;;;;;7.30;6.60;;;;;;;17.92;84.09;99876.16;5093203;28;20656;-75
2023/09/18 05:41:20;;;;;;;7.03;6.33;;;;;;;17.93;83.31;99882.41;5093199;28;20204;-75
2023/09/18 05:43:48;;;;;;;7.33;6.63;;;;;;;17.96;83.76;99914.44;5093372;28;20335;-75
2023/09/18 05:46:16;;;;;;;9.83;7.07;;;;;;;17.98;84.03;99912.38;5093492;28;20201;-75
2023/09/18 05:48:45;;;;;;;7.37;6.60;;;;;;;18.00;84.44;99915.66;5093491;28;20200;-75
2023/09/18 05:51:13;;;;;;;7.27;6.57;;;;;;;18.02;84.33;99918.94;5093676;28;20313;-75
2023/09/18 05:53:43;;;;;;;8.13;7.30;;;;;;;18.04;84.68;99914.16;5093041;28;20737;-75
2023/09/18 05:56:12;;;;;;;9.93;7.30;;;;;;;18.05;84.87;99902.25;5093688;28;20201;-75
2023/09/18 05:58:40;;;;;;;9.10;7.13;;;;;;;18.04;84.01;99895.19;5093391;28;20205;-75
2023/09/18 06:01:09;;;;;;;8.40;7.30;;;;;;;18.08;84.45;99880.13;5093292;28;20208;-75
2023/09/18 06:03:37;;;;;;;8.30;7.40;;;;;;;18.09;84.16;99892.59;5093146;28;20264;-75
2023/09/18 06:06:07;;;;;;;9.63;8.13;;;;;;;18.10;84.96;99888.84;5093791;28;20262;-75
2023/09/18 06:08:36;;;;;;;8.97;8.10;;;;;;;18.11;85.28;99885.09;5092931;28;20749;-75
2023/09/18 06:11:06;;;;;;;9.60;7.70;;;;;;;18.12;85.21;99875.88;5093199;28;20208;-75
2023/09/18 06:13:36;;;;;;;9.33;7.73;;;;;;;18.12;86.07;99873.19;5093185;28;20224;-75
2023/09/18 06:16:08;;;;;;;8.90;8.00;;;;;;;18.13;86.13;99867.53;5093248;28;20296;-75
2023/09/18 06:18:38;;;;;;;10.20;8.70;;;;;;;18.15;85.93;99864.63;5094070;28;20193;-75
2023/09/18 06:21:06;;;;;;;8.53;7.73;;;;;;;18.17;85.94;99867.91;5093147;28;20240;-75
2023/09/18 06:23:35;;;;;;;14.20;8.60;;;;;;;18.18;86.47;99864.16;5092648;28;20678;-75
2023/09/18 06:26:05;;;;;;;11.33;8.27;;;;;;;18.19;85.99;99863.91;5094755;28;20212;-75
2023/09/18 06:28:34;;;;;;;9.63;8.63;;;;;;;18.22;86.23;99849.06;5097040;28;20203;-75
2023/09/18 06:31:02;;;;;;;10.77;7.87;;;;;;;18.21;85.97;99825.75;5096887;28;20252;-75
2023/09/18 06:33:31;;;;;;;9.70;7.60;;;;;;;18.22;85.99;99813.84;5096492;28;20719;-75
2023/09/18 06:36:00;;;;;;;8.40;7.33;;;;;;;18.24;85.97;99807.16;5096998;28;20250;-75
2023/09/18 06:38:28;;;;;;;11.87;7.70;;;;;;;18.25;85.93;99805.28;5096774;28;20209;-75
2023/09/18 06:40:56;;;;;;;9.87;7.40;;;;;;;18.28;84.90;99815.66;5096771;28;20217;-75
2023/09/18 06:43:26;;;;;;;9.33;7.77;;;;;;;18.33;85.48;99804.09;5096511;28;20225;-75
2023/09/18 06:45:57;;;;;;;7.87;7.07;;;;;;;18.35;85.08;99794.69;5096656;28;20293;-75
2023/09/18 06:48:26;;;;;;;8.83;7.87;;;;;;;18.39;86.20;99795.84;5096629;28;20205;-75
2023/09/18 06:50:55;;;;;;;9.23;7.27;;;;;;;18.42;85.93;99791.88;5096769;28;20212;-75
2023/09/18 06:53:23;;;;;;;8.83;7.23;;;;;;;18.44;86.00;99793.28;5096438;28;20260;-75
2023/09/18 06:55:52;;;;;;;8.43;7.53;;;;;;;18.47;86.51;99798.22;5096438;28;20284;-75
2023/09/18 06:58:21;;;;;;;7.37;6.67;;;;;;;18.48;86.43;99802.59;5096685;28;20239;-75
2023/09/18 07:00:51;;;;;;;7.57;6.67;;;;;;;18.52;86.48;99801.09;5096320;28;20205;-75
2023/09/18 07:03:19;;;;;;;8.03;7.33;;;;;;;18.53;86.89;99804.59;5096219;28;20233;-75
2023/09/18 07:05:50;;;;;;;9.13;6.70;;;;;;;18.53;86.06;99802.72;5096247;28;20245;-75
2023/09/18 07:08:22;;;;;;;11.23;7.47;;;;;;;18.60;87.55;99808.88;5096234;28;20292;-75
2023/09/18 07:10:51;;;;;;;7.77;6.73;;;;;;;18.59;86.70;99809.94;5096140;28;20189;-75
2023/09/18 07:13:20;;;;;;;8.17;7.23;;;;;;;18.62;86.95;99806.75;5096041;28;20319;-75
2023/09/18 07:15:49;;;;;;;7.90;7.03;;;;;;;18.63;86.52;99819.25;5096127;28;20287;-75
2023/09/18 07:18:18;;;;;;;7.67;6.67;;;;;;;18.69;86.85;99818.31;5096072;28;20287;-75
2023/09/18 07:20:47;;;;;;;8.40;7.00;;;;;;;18.71;86.77;99820.78;5096038;28;20297;-75
2023/09/18 07:23:15;;;;;;;9.27;6.93;;;;;;;18.70;86.36;99819.13;5095910;28;20224;-75
2023/09/18 07:25:44;;;;;;;9.20;7.47;;;;;;;18.77;87.12;99829.88;5095534;28;20571;-75
2023/09/18 07:28:17;;;;;;;7.27;6.57;;;;;;;18.76;86.58;99828.22;5095835;28;20299;-75
2023/09/18 07:30:45;;;;;;;7.53;6.33;;;;;;;18.77;86.72;99835.31;5095854;28;20247;-75
2023/09/18 07:33:17;;;;;;;9.63;6.73;;;;;;;18.80;86.92;99837.53;5095459;28;20244;-75
2023/09/18 07:35:48;;;;;;;7.90;6.63;;;;;;;18.82;86.78;99829.97;5095398;28;20634;-75
2023/09/18 07:38:18;;;;;;;12.33;6.73;;;;;;;18.86;87.37;99829.28;5095342;28;20207;-76
2023/09/18 07:40:47;;;;;;;10.93;7.50;;;;;;;18.88;87.29;99826.31;5095768;28;20193;-75
2023/09/18 07:43:16;;;;;;;7.47;6.67;;;;;;;18.93;87.80;99823.75;5095182;28;20250;-75
2023/09/18 07:45:44;;;;;;;8.10;6.83;;;;;;;18.97;87.20;99814.06;5095328;28;20315;-76
2023/09/18 07:48:17;;;;;;;6.80;6.10;;;;;;;19.01;87.16;99818.75;5095598;28;20296;-76
2023/09/18 07:50:45;;;;;;;6.27;5.67;;;;;;;19.07;86.17;99817.00;5095364;28;20643;-76
2023/09/18 07:53:14;;;;;;;6.67;5.93;;;;;;;19.12;85.96;99823.34;5095315;28;20430;-76
2023/09/18 07:55:42;;;;;;;9.43;5.73;;;;;;;19.16;86.05;99834.56;5095199;28;20201;-76
2023/09/18 07:58:11;;;;;;;7.20;6.37;;;;;;;19.21;86.27;99827.34;5095104;28;20205;-75
2023/09/18 08:00:40;;;;;;;6.47;5.73;;;;;;;19.23;85.86;99840.69;5095237;28;20259;-75
2023/09/18 08:03:08;;;;;;;7.30;5.77;;;;;;;19.28;85.30;99864.41;5095105;28;20260;-74
2023/09/18 08:05:38;;;;;;;6.70;6.00;;;;;;;19.32;85.43;99855.53;5095051;28;20220;-74
2023/09/18 08:08:07;;;;;;;6.73;6.10;;;;;;;19.35;85.43;99844.19;5094804;28;20205;-74
2023/09/18 08:10:38;;;;;;;7.63;6.40;;;;;;;19.44;85.14;99842.00;5095108;28;20201;-74
2023/09/18 08:13:06;;;;;;;7.37;5.90;;;;;;;19.44;85.31;99845.53;5094984;28;20231;-74
2023/09/18 08:15:35;;;;;;;7.57;5.83;;;;;;;19.51;84.14;99853.53;5094608;28;20236;-73
2023/09/18 08:18:04;;;;;;;11.40;6.10;;;;;;;19.54;84.69;99859.31;5094899;28;20204;-74
2023/09/18 08:20:32;;;;;;;9.67;5.37;;;;;;;19.62;84.43;99850.78;5094497;28;20216;-74
2023/09/18 08:23:05;;;;;;;7.60;5.50;;;;;;;19.83;83.73;99856.63;5094764;28;20224;-74
2023/09/18 08:25:33;;;;;;;6.90;5.50;;;;;;;19.94;83.08;99853.03;5094768;28;20237;-74
2023/09/18 08:28:03;;;;;;;6.43;4.70;;;;;;;20.08;82.46;99854.38;5094669;28;20288;-74
2023/09/18 08:30:32;;;;;;;5.93;4.70;;;;;;;20.17;80.74;99855.66;5094732;28;20213;-74
2023/09/18 08:33:01;;;;;;;12.33;5.50;;;;;;;20.30;80.75;99862.72;5094364;28;20232;-74
2023/09/18 08:35:30;;;;;;;5.53;4.60;;;;;;;20.33;80.63;99868.47;5094617;28;20197;-74
2023/09/18 08:37:58;;;;;;;5.87;4.43;;;;;;;20.35;79.24;99866.34;5094567;28;20205;-75
2023/09/18 08:40:28;;;;;;;6.13;4.80;;;;;;;20.41;79.34;99869.97;5094489;28;20236;-75
2023/09/18 08:42:59;;;;;;;6.60;4.80;;;;;;;20.52;78.27;99861.75;5094462;28;20225;-75
2023/09/18 08:45:35;;;;;;;5.37;4.70;;;;;;;20.55;78.27;99861.25;5094358;28;20205;-75
2023/09/18 08:48:05;;;;;;;6.80;5.03;;;;;;;20.56;78.96;99862.06;5093635;28;20560;-75
2023/09/18 08:50:35;;;;;;;6.83;4.57;;;;;;;20.70;76.89;99866.94;5093955;28;20642;-75
2023/09/18 08:53:05;;;;;;;9.87;5.17;;;;;;;20.91;75.03;99859.09;5094194;28;20220;-74
2023/09/18 08:55:36;;;;;;;6.77;4.23;;;;;;;21.05;74.85;99857.69;5094226;28;20574;-74
2023/09/18 08:58:04;;;;;;;8.80;4.50;;;;;;;21.08;76.08;99862.63;5094235;28;20220;-75
2023/09/18 09:00:33;;;;;;;7.17;4.53;;;;;;;21.11;74.91;99867.59;5094136;28;20207;-75
2023/09/18 09:03:04;;;;;;;11.23;5.10;;;;;;;21.34;73.05;99861.94;5094041;28;20311;-73
2023/09/18 09:05:33;;;;;;;8.17;4.77;;;;;;;21.36;72.88;99846.19;5093734;28;20577;-73
2023/09/18 09:08:02;;;;;;;9.37;4.47;;;;;;;21.45;72.28;99832.94;5093285;28;20227;-73
2023/09/18 09:10:31;;;;;;;12.73;8.20;;;;;;;21.38;73.80;99833.13;5093694;28;20248;-73
2023/09/18 09:13:02;;;;;;;6.47;4.33;;;;;;;21.44;72.66;99836.75;5093527;28;20312;-72
2023/09/18 09:15:45;;;;;;;12.07;4.80;;;;;;;21.53;72.46;99846.13;5093805;28;20189;-72
2023/09/18 09:18:15;;;;;;;9.27;4.40;;;;;;;21.52;72.76;99845.31;5093849;28;20197;-73
2023/09/18 09:20:58;;;;;;;6.07;4.83;;;;;;;21.52;73.80;99853.47;5093882;28;20189;-73
2023/09/18 09:23:28;;;;;;;8.70;4.67;;;;;;;21.71;72.66;99854.00;5093806;28;20311;-72
2023/09/18 09:26:14;;;;;;;9.70;4.47;;;;;;;21.72;72.80;99855.63;5093553;28;20225;-72
2023/09/18 09:28:45;;;;;;;9.40;3.97;;;;;;;21.80;71.89;99843.44;5093258;28;20223;-73
2023/09/18 09:31:28;;;;;;;8.40;4.30;;;;;;;21.83;71.29;99846.50;5093437;28;20272;-73
2023/09/18 09:33:58;;;;;;;7.30;4.17;;;;;;;22.02;70.24;99860.66;5093354;28;20640;-74
2023/09/18 09:36:26;;;;;;;9.10;5.20;;;;;;;21.86;71.76;99845.16;5093615;28;20209;-73
2023/09/18 09:38:58;;;;;;;10.27;4.60;;;;;;;21.83;72.04;99848.38;5093597;28;20204;-73
2023/09/18 09:41:28;;;;;;;10.23;5.80;;;;;;;21.82;71.78;99844.84;5093044;28;20189;-72
2023/09/18 09:43:59;;;;;;;12.60;4.10;;;;;;;21.99;70.03;99851.06;5093537;28;20228;-73
2023/09/18 09:46:28;;;;;;;8.70;4.20;;;;;;;22.09;69.33;99861.25;5093632;28;20252;-73
2023/09/18 09:49:01;;;;;;;7.93;3.63;;;;;;;22.15;68.89;99855.59;5093515;28;20212;-73
2023/09/18 09:51:30;;;;;;;10.53;3.93;;;;;;;22.18;68.63;99846.09;5093204;28;20647;-73
2023/09/18 09:54:00;;;;;;;6.53;3.77;;;;;;;22.13;69.22;99846.03;5093377;28;20221;-72
2023/09/18 09:56:46;;;;;;;8.60;4.10;;;;;;;22.11;69.12;99848.19;5093115;28;20663;-72
2023/09/18 09:59:17;;;;;;;12.03;3.80;;;;;;;22.15;68.08;99854.78;5093428;28;20221;-73
2023/09/18 10:01:50;;;;;;;7.77;3.40;;;;;;;22.16;68.23;99850.94;5096061;28;20635;-73
2023/09/18 10:04:20;;;;;;;9.90;3.63;;;;;;;22.14;68.08;99850.41;5097476;28;20311;-72
2023/09/18 10:06:55;;;;;;;9.33;3.70;;;;;;;22.15;67.73;99860.22;5097288;28;20273;-72
2023/09/18 10:09:28;;;;;;;5.50;3.63;;;;;;;22.14;67.75;99847.66;5097020;28;20287;-74
2023/09/18 10:11:58;;;;;;;6.37;3.70;;;;;;;22.08;67.80;99857.72;5096984;28;20551;-72
2023/09/18 10:14:33;;;;;;;6.73;3.93;;;;;;;22.07;67.82;99855.22;5096195;28;20630;-72
2023/09/18 10:17:21;;;;;;;5.10;3.00;;;;;;;22.11;67.21;99856.38;5096644;28;20212;-72
2023/09/18 10:20:16;;;;;;;7.77;3.80;;;;;;;22.18;67.50;99854.25;5096277;28;20193;-72
2023/09/18 10:22:49;;;;;;;9.23;3.30;;;;;;;22.18;67.23;99843.34;5096959;28;20311;-72
2023/09/18 10:25:22;;;;;;;7.43;3.23;;;;;;;22.20;67.24;99863.00;5096878;28;20611;-72
2023/09/18 10:27:53;;;;;;;8.10;3.37;;;;;;;22.20;67.53;99852.09;5097104;28;20245;-73
2023/09/18 10:30:23;;;;;;;7.00;3.27;;;;;;;22.23;66.87;99862.47;5097017;28;20201;-73
2023/09/18 10:32:53;;;;;;;5.67;3.13;;;;;;;22.20;67.36;99863.00;5096767;28;20232;-73
2023/09/18 10:35:22;;;;;;;7.67;4.50;;;;;;;22.22;67.02;99861.69;5096698;28;20693;-72
2023/09/18 10:37:53;;;;;;;6.93;3.10;;;;;;;22.20;67.32;99863.00;5096879;28;20205;-72
2023/09/18 10:40:23;;;;;;;11.13;4.70;;;;;;;22.20;67.44;99852.09;5096848;28;20204;-73
2023/09/18 10:42:53;;;;;;;9.30;4.10;;;;;;;22.27;67.04;99874.53;5096738;28;20256;-72
2023/09/18 10:45:23;;;;;;;8.83;3.40;;;;;;;22.34;66.91;99886.03;5096727;28;20215;-73
2023/09/18 10:47:52;;;;;;;12.40;7.70;;;;;;;22.38;67.24;99876.28;5097324;28;20307;-73
2023/09/18 10:50:26;;;;;;;8.77;3.47;;;;;;;22.39;66.63;99883.38;5096704;28;20239;-74
2023/09/18 10:52:54;;;;;;;8.63;3.43;;;;;;;22.38;67.34;99884.47;5096535;28;20228;-72
2023/09/18 10:55:24;;;;;;;7.43;3.50;;;;;;;22.41;66.71;99886.66;5096563;28;20337;-73
2023/09/18 10:57:53;;;;;;;5.80;3.50;;;;;;;22.40;67.06;99892.41;5096500;28;20232;-72
2023/09/18 11:00:27;;;;;;;8.23;3.20;;;;;;;22.42;67.29;99891.03;5096155;28;20749;-72
2023/09/18 11:03:11;;;;;;;5.47;3.37;;;;;;;22.42;67.27;99891.03;5095496;28;20736;-73
2023/09/18 11:05:40;;;;;;;7.77;3.77;;;;;;;22.43;67.34;99900.06;5095921;28;20189;-72
2023/09/18 11:08:28;;;;;;;9.77;3.27;;;;;;;22.45;66.86;99898.72;5096134;28;20579;-71
2023/09/18 11:11:04;;;;;;;7.30;3.20;;;;;;;22.46;67.13;99899.53;5095463;28;20240;-74
2023/09/18 11:13:37;;;;;;;6.37;3.60;;;;;;;22.50;67.30;99914.31;5095890;28;20228;-68
2023/09/18 11:16:17;;;;;;;7.20;3.77;;;;;;;22.46;66.83;99924.91;5095736;28;20717;-69
2023/09/18 11:18:53;;;;;;;5.47;2.87;;;;;;;22.49;66.59;99931.75;5096125;28;20188;-75
2023/09/18 11:21:26;;;;;;;6.53;3.10;;;;;;;22.48;67.28;99917.28;5095779;28;20246;-75
2023/09/18 11:24:03;;;;;;;7.63;3.20;;;;;;;22.51;66.53;99922.22;5095077;28;20667;-75
2023/09/18 11:26:33;;;;;;;8.10;3.00;;;;;;;22.52;66.76;99925.78;5095926;28;20389;-75
2023/09/18 11:29:04;;;;;;;6.80;3.13;;;;;;;22.57;66.97;99910.28;5095676;28;20244;-66
2023/09/18 11:31:49;;;;;;;6.67;2.73;;;;;;;22.56;66.89;99911.38;5095654;28;20279;-68
2023/09/18 11:34:24;;;;;;;5.80;3.43;;;;;;;22.63;66.69;99912.00;5094534;28;20319;-68
2023/09/18 11:36:53;;;;;;;7.57;2.70;;;;;;;22.63;65.70;99909.25;5095762;28;20189;-75
2023/09/18 11:39:36;;;;;;;7.27;2.90;;;;;;;22.69;65.66;99913.69;5095687;28;20209;-74
2023/09/18 11:42:12;;;;;;;5.37;3.00;;;;;;;22.81;65.51;99907.25;5095723;28;20189;-74
2023/09/18 11:44:46;;;;;;;5.93;2.70;;;;;;;22.87;65.02;99906.22;5095613;28;20247;-75